Time;durP1;ratioP1;P1;durP2;ratioP2;P2;SDS_P1;SDS_P2;PMS_P1;PMS_P2;Temp;Humidity;BMP_temperature;BMP_pressure;BME280_temperature;BME280_humidity;BME280_pressure;Samples;Min_cycle;Max_cycle;Signal;HPM_P1;HPM_P2
2023/12/07 00:01:08;;;;;;;21.73;14.68;;;;;;;2.26;100.00;101065.50;6098886;23;20124;-82
2023/12/07 00:03:34;;;;;;;23.10;14.55;;;;;;;2.24;100.00;101069.75;6124440;23;20021;-82
2023/12/07 00:06:01;;;;;;;22.27;14.75;;;;;;;2.22;100.00;101068.81;6098791;23;20030;-81
2023/12/07 00:08:28;;;;;;;25.88;14.73;;;;;;;2.28;100.00;101075.88;6123027;23;20083;-82
2023/12/07 00:10:54;;;;;;;20.00;13.70;;;;;;;2.29;100.00;101080.22;6098962;23;20021;-81
2023/12/07 00:13:21;;;;;;;19.80;13.95;;;;;;;2.30;100.00;101069.94;6110880;23;20125;-82
2023/12/07 00:15:48;;;;;;;19.75;14.15;;;;;;;2.33;100.00;101082.06;6098623;23;20333;-81
2023/12/07 00:18:14;;;;;;;22.17;13.75;;;;;;;2.34;100.00;101078.66;6098325;23;20067;-81
2023/12/07 00:20:41;;;;;;;20.85;13.13;;;;;;;2.32;100.00;101088.06;6099412;23;20324;-83
2023/12/07 00:23:07;;;;;;;19.75;14.02;;;;;;;2.30;100.00;101090.59;6120190;23;20100;-82
2023/12/07 00:25:34;;;;;;;23.48;14.50;;;;;;;2.32;100.00;101088.06;6123285;23;20056;-82
2023/12/07 00:28:01;;;;;;;23.83;14.18;;;;;;;2.34;100.00;101090.72;6122046;23;20483;-81
2023/12/07 00:30:27;;;;;;;22.08;14.20;;;;;;;2.30;100.00;101090.59;6099622;23;20044;-82
2023/12/07 00:32:54;;;;;;;21.60;14.55;;;;;;;2.33;100.00;101096.69;6123760;23;20084;-81
2023/12/07 00:35:24;;;;;;;28.13;14.45;;;;;;;2.29;100.00;101099.19;6100796;23;20033;-81
2023/12/07 00:37:51;;;;;;;19.00;13.30;;;;;;;2.33;100.00;101099.28;6123797;23;20045;-83
2023/12/07 00:40:18;;;;;;;26.67;15.35;;;;;;;2.31;100.00;101092.34;6124519;23;20018;-81
2023/12/07 00:42:45;;;;;;;22.10;14.38;;;;;;;2.34;100.00;101096.75;6121195;23;20021;-82
2023/12/07 00:45:13;;;;;;;21.27;12.38;;;;;;;2.40;100.00;101099.53;6123483;23;20021;-82
2023/12/07 00:47:40;;;;;;;24.88;15.10;;;;;;;2.39;100.00;101099.50;6121825;23;20030;-80
2023/12/07 00:50:08;;;;;;;27.25;15.75;;;;;;;2.41;100.00;101098.72;6099286;23;20064;-81
2023/12/07 00:52:38;;;;;;;21.52;13.65;;;;;;;2.40;100.00;101107.28;6125022;23;20028;-82
2023/12/07 00:55:05;;;;;;;26.10;15.20;;;;;;;2.40;100.00;101101.22;6124370;23;20018;-81
2023/12/07 00:57:32;;;;;;;26.27;14.63;;;;;;;2.40;100.00;101107.28;6124307;23;20021;-81
2023/12/07 00:59:59;;;;;;;23.33;15.13;;;;;;;2.41;100.00;101108.16;6099577;23;20013;-82
2023/12/07 01:02:28;;;;;;;21.02;15.18;;;;;;;2.44;100.00;101106.53;6125173;23;20128;-81
2023/12/07 01:04:57;;;;;;;28.55;14.93;;;;;;;2.41;100.00;101115.91;6096771;23;20103;-84
2023/12/07 01:07:23;;;;;;;25.55;17.15;;;;;;;2.39;100.00;101115.00;6100224;23;20025;-83
2023/12/07 01:09:50;;;;;;;24.48;15.48;;;;;;;2.34;100.00;101120.00;6100816;23;20043;-81
2023/12/07 01:12:17;;;;;;;25.67;17.42;;;;;;;2.40;100.00;101114.13;6126725;23;20092;-83
2023/12/07 01:14:43;;;;;;;22.88;15.02;;;;;;;2.42;100.00;101126.28;6124039;23;20096;-84
2023/12/07 01:17:10;;;;;;;26.05;16.30;;;;;;;2.46;100.00;101127.25;6099175;23;20021;-82
2023/12/07 01:19:37;;;;;;;24.27;15.73;;;;;;;2.50;100.00;101131.69;6123057;23;20022;-83
2023/12/07 01:22:04;;;;;;;26.42;15.70;;;;;;;2.46;100.00;101133.31;6095564;23;20018;-83
2023/12/07 01:24:30;;;;;;;27.38;14.40;;;;;;;2.46;100.00;101133.31;6099276;23;20090;-81
2023/12/07 01:26:58;;;;;;;24.67;13.88;;;;;;;2.53;100.00;101141.25;6100026;23;20029;-82
2023/12/07 01:29:31;;;;;;;24.27;15.80;;;;;;;2.56;100.00;101144.81;6099859;23;20026;-80
2023/12/07 01:32:10;;;;;;;;;;;;;;;2.57;100.00;101148.25;6099350;23;20025;-83
2023/12/07 01:34:36;;;;;;;25.38;13.93;;;;;;;2.54;100.00;101146.47;6124235;23;19923;-82
2023/12/07 01:37:03;;;;;;;23.23;14.35;;;;;;;2.54;100.00;101143.88;6122561;23;20363;-83
2023/12/07 01:39:29;;;;;;;28.48;15.95;;;;;;;2.57;100.00;101150.84;6104245;23;20028;-81
2023/12/07 01:41:58;;;;;;;24.33;15.25;;;;;;;2.50;100.00;101144.63;6123419;23;20045;-82
2023/12/07 01:44:25;;;;;;;22.98;15.73;;;;;;;2.54;100.00;101156.78;6127424;23;20028;-82
2023/12/07 01:46:52;;;;;;;24.73;15.80;;;;;;;2.53;100.00;101164.50;6128544;23;20447;-82
2023/12/07 01:49:19;;;;;;;25.42;15.80;;;;;;;2.50;100.00;101160.13;6127318;23;20427;-83
2023/12/07 01:51:46;;;;;;;23.75;15.57;;;;;;;2.47;100.00;101160.03;6127098;23;20332;-82
2023/12/07 01:54:13;;;;;;;23.23;14.43;;;;;;;2.48;100.00;101156.63;6126677;23;20455;-81
2023/12/07 01:56:41;;;;;;;27.08;17.10;;;;;;;2.49;100.00;101160.97;6150653;23;20027;-83
2023/12/07 01:59:09;;;;;;;25.33;15.43;;;;;;;2.51;100.00;101156.72;6101729;23;20017;-80
2023/12/07 02:01:35;;;;;;;22.77;14.30;;;;;;;2.51;100.00;101159.28;6101918;23;20072;-83
2023/12/07 02:04:02;;;;;;;21.30;14.10;;;;;;;2.51;100.00;101155.84;6125180;23;20053;-82
2023/12/07 02:06:29;;;;;;;26.13;16.05;;;;;;;2.51;100.00;101161.88;6102806;23;20055;-81
2023/12/07 02:08:56;;;;;;;23.80;14.07;;;;;;;2.50;100.00;101156.66;6126715;23;20337;-80
2023/12/07 02:11:25;;;;;;;22.58;13.23;;;;;;;2.51;100.00;101172.22;6103165;23;20021;-80
2023/12/07 02:13:55;;;;;;;20.33;13.70;;;;;;;2.51;100.00;101164.47;6127809;23;20135;-81
2023/12/07 02:16:44;;;;;;;23.63;14.35;;;;;;;2.50;100.00;101167.88;6127128;23;20032;-84
2023/12/07 02:19:48;;;;;;;31.17;15.75;;;;;;;2.54;100.00;101163.69;6100317;23;20025;-82
2023/12/07 02:22:27;;;;;;;21.95;13.98;;;;;;;2.53;100.00;101165.41;6126238;23;20397;-81
2023/12/07 02:25:08;;;;;;;24.50;13.70;;;;;;;2.51;100.00;101171.34;6126578;23;20048;-81
2023/12/07 02:27:45;;;;;;;20.17;13.30;;;;;;;2.56;100.00;101167.22;6103662;23;20029;-84
2023/12/07 02:30:13;;;;;;;20.92;13.32;;;;;;;2.54;100.00;101179.19;6151119;23;20045;-81
2023/12/07 02:32:46;;;;;;;19.60;13.20;;;;;;;2.55;100.00;101173.19;6126812;23;20444;-80
2023/12/07 02:35:13;;;;;;;21.52;13.80;;;;;;;2.57;100.00;101174.09;6125749;23;20413;-82
2023/12/07 02:37:50;;;;;;;20.58;13.30;;;;;;;2.54;100.00;101171.44;6126780;23;20075;-83
2023/12/07 02:40:23;;;;;;;19.38;12.82;;;;;;;2.53;100.00;101177.44;6124867;23;20354;-83
2023/12/07 02:42:50;;;;;;;19.00;12.40;;;;;;;2.52;100.00;101170.53;6125221;23;20025;-83
2023/12/07 02:45:17;;;;;;;18.75;12.50;;;;;;;2.52;100.00;101173.13;6096711;23;20029;-82
2023/12/07 02:47:45;;;;;;;20.20;13.25;;;;;;;2.52;100.00;101178.28;6099923;23;20644;-82
2023/12/07 02:50:12;;;;;;;19.65;12.95;;;;;;;2.52;100.00;101175.69;6120877;23;20076;-82
2023/12/07 02:52:39;;;;;;;22.63;13.85;;;;;;;2.52;100.00;101173.13;6123488;23;20025;-81
2023/12/07 02:55:09;;;;;;;19.70;11.82;;;;;;;2.51;100.00;101172.22;6095622;23;20033;-82
2023/12/07 02:57:38;;;;;;;20.95;13.43;;;;;;;2.52;100.00;101181.72;6123628;23;20040;-81
2023/12/07 03:00:07;;;;;;;20.45;12.88;;;;;;;2.55;100.00;101183.53;6124157;23;20044;-81
2023/12/07 03:02:39;;;;;;;21.60;13.35;;;;;;;2.52;100.00;101173.13;6098509;23;20535;-82
2023/12/07 03:05:07;;;;;;;20.10;13.57;;;;;;;2.50;100.00;101178.22;6092953;23;20039;-83
2023/12/07 03:07:35;;;;;;;19.27;12.75;;;;;;;2.51;100.00;101176.53;6122283;23;20057;-83
2023/12/07 03:10:02;;;;;;;20.00;13.18;;;;;;;2.52;100.00;101180.88;6122892;23;20072;-82
2023/12/07 03:12:29;;;;;;;16.58;11.40;;;;;;;2.53;100.00;101175.75;6098814;23;20022;-82
2023/12/07 03:14:57;;;;;;;20.92;12.50;;;;;;;2.54;100.00;101187.81;6121370;23;20021;-83
2023/12/07 03:17:24;;;;;;;21.35;12.60;;;;;;;2.53;100.00;101187.78;6121613;23;20052;-83
2023/12/07 03:19:51;;;;;;;18.17;12.50;;;;;;;2.54;100.00;101186.94;6097431;23;20025;-82
2023/12/07 03:22:17;;;;;;;17.33;12.15;;;;;;;2.54;100.00;101185.22;6097190;23;20050;-81
2023/12/07 03:24:51;;;;;;;19.52;13.07;;;;;;;2.56;100.00;101185.31;6122894;23;20036;-82
2023/12/07 03:27:17;;;;;;;19.10;12.23;;;;;;;2.58;100.00;101187.09;6121001;23;20026;-83
2023/12/07 03:29:44;;;;;;;23.70;13.80;;;;;;;2.55;100.00;101184.41;6146397;23;20403;-81
2023/12/07 03:32:12;;;;;;;18.15;12.15;;;;;;;2.55;100.00;101196.47;6096539;23;20072;-84
2023/12/07 03:34:39;;;;;;;19.35;13.02;;;;;;;2.58;100.00;101202.63;6094704;23;20428;-82
2023/12/07 03:37:05;;;;;;;21.38;13.85;;;;;;;2.58;100.00;101202.63;6121107;23;20105;-81
2023/12/07 03:39:36;;;;;;;18.92;12.95;;;;;;;2.57;100.00;101194.78;6124278;23;20407;-84
2023/12/07 03:42:02;;;;;;;19.25;12.05;;;;;;;2.55;100.00;101205.09;6123133;23;20052;-80
2023/12/07 03:44:30;;;;;;;20.58;13.75;;;;;;;2.58;100.00;101206.88;6123865;23;20017;-82
2023/12/07 03:46:57;;;;;;;23.00;12.85;;;;;;;2.57;100.00;101206.03;6093427;23;20029;-84
2023/12/07 03:49:23;;;;;;;20.63;14.02;;;;;;;2.56;100.00;101214.59;6122156;23;20108;-83
2023/12/07 03:51:50;;;;;;;22.75;11.77;;;;;;;2.57;100.00;101210.28;6120952;23;20440;-84
2023/12/07 03:54:17;;;;;;;18.20;12.13;;;;;;;2.58;100.00;101215.53;6120891;23;20037;-84
2023/12/07 03:56:43;;;;;;;19.23;12.90;;;;;;;2.54;100.00;101216.25;6121923;23;20021;-82
2023/12/07 03:59:10;;;;;;;18.45;12.45;;;;;;;2.55;100.00;101220.59;6122381;23;20029;-82
2023/12/07 04:01:36;;;;;;;17.67;11.77;;;;;;;2.52;100.00;101224.81;6122200;23;20060;-83
2023/12/07 04:04:10;;;;;;;20.58;13.25;;;;;;;2.52;100.00;101217.91;6121859;23;20704;-82
2023/12/07 04:06:37;;;;;;;20.83;12.52;;;;;;;2.53;100.00;101216.19;6099290;23;20025;-83
2023/12/07 04:09:05;;;;;;;20.85;12.75;;;;;;;2.50;100.00;101218.69;6123290;23;20032;-83
2023/12/07 04:11:32;;;;;;;16.08;11.00;;;;;;;2.50;100.00;101218.69;6099011;23;20018;-83
2023/12/07 04:14:01;;;;;;;17.23;11.82;;;;;;;2.45;100.00;101218.53;6098274;23;20108;-83
2023/12/07 04:16:28;;;;;;;19.20;12.35;;;;;;;2.48;100.00;101224.69;6096566;23;20032;-83
2023/12/07 04:18:58;;;;;;;19.65;11.85;;;;;;;2.48;100.00;101221.22;6121823;23;20025;-84
2023/12/07 04:21:25;;;;;;;16.50;12.18;;;;;;;2.52;100.00;101223.09;6096237;23;20031;-82
2023/12/07 04:23:52;;;;;;;19.88;13.23;;;;;;;2.53;100.00;101229.13;6120340;23;20395;-83
2023/12/07 04:26:19;;;;;;;20.15;11.73;;;;;;;2.51;100.00;101225.63;6121925;23;20474;-83
2023/12/07 04:28:45;;;;;;;16.67;11.88;;;;;;;2.50;100.00;101227.31;6122608;23;20105;-82
2023/12/07 04:31:12;;;;;;;21.35;12.13;;;;;;;2.55;100.00;101232.66;6121752;23;20049;-81
2023/12/07 04:33:41;;;;;;;17.52;12.13;;;;;;;2.57;100.00;101228.38;6097742;23;20024;-80
2023/12/07 04:36:08;;;;;;;18.23;12.48;;;;;;;2.55;100.00;101225.75;6071194;23;20032;-81
2023/12/07 04:38:34;;;;;;;16.42;11.93;;;;;;;2.54;100.00;101225.72;6094522;23;20068;-83
2023/12/07 04:41:01;;;;;;;16.88;11.40;;;;;;;2.56;100.00;101230.09;6099754;23;20097;-81
2023/12/07 04:43:28;;;;;;;16.65;10.70;;;;;;;2.55;100.00;101222.31;6098756;23;20029;-83
2023/12/07 04:45:56;;;;;;;16.20;11.43;;;;;;;2.55;100.00;101228.34;6143649;23;20490;-83
2023/12/07 04:48:23;;;;;;;21.33;12.55;;;;;;;2.57;100.00;101229.28;6098310;23;20100;-82
2023/12/07 04:50:50;;;;;;;18.58;12.15;;;;;;;2.58;100.00;101232.75;6121557;23;20019;-83
2023/12/07 04:53:17;;;;;;;18.33;12.75;;;;;;;2.57;100.00;101230.97;6121627;23;20017;-83
2023/12/07 04:55:49;;;;;;;19.08;12.00;;;;;;;2.58;100.00;101236.22;6120982;23;20132;-82
2023/12/07 04:58:18;;;;;;;14.48;10.70;;;;;;;2.61;100.00;101230.28;6121175;23;20495;-82
2023/12/07 05:00:48;;;;;;;21.73;11.65;;;;;;;2.59;100.00;101232.78;6098097;23;20014;-81
2023/12/07 05:03:17;;;;;;;18.67;11.70;;;;;;;2.61;100.00;101232.84;6122461;23;20125;-83
2023/12/07 05:05:46;;;;;;;16.27;11.60;;;;;;;2.58;100.00;101228.47;6097632;23;20076;-81
2023/12/07 05:08:13;;;;;;;16.15;10.68;;;;;;;2.62;100.00;101229.41;6121412;23;20021;-80
2023/12/07 05:10:39;;;;;;;16.50;10.77;;;;;;;2.62;100.00;101235.50;6121068;23;20505;-81
2023/12/07 05:13:06;;;;;;;16.55;12.05;;;;;;;2.65;100.00;101232.13;6097151;23;20277;-81
2023/12/07 05:15:32;;;;;;;19.27;12.07;;;;;;;2.63;100.00;101231.19;6122795;23;20451;-81
2023/12/07 05:17:59;;;;;;;17.45;12.38;;;;;;;2.60;100.00;101239.72;6127395;23;20116;-83
2023/12/07 05:20:30;;;;;;;18.65;11.73;;;;;;;2.61;100.00;101232.84;6125935;23;20029;-83
2023/12/07 05:22:57;;;;;;;19.05;12.35;;;;;;;2.62;100.00;101239.75;6125810;23;20025;-84
2023/12/07 05:25:32;;;;;;;18.52;12.02;;;;;;;2.62;100.00;101238.06;6097934;23;20040;-82
2023/12/07 05:28:03;;;;;;;;;;;;;;;2.61;100.00;101238.91;6097445;23;20025;-85
2023/12/07 05:30:32;;;;;;;18.65;11.68;;;;;;;2.64;100.00;101236.41;6122686;23;19921;-84
2023/12/07 05:33:04;;;;;;;23.23;13.02;;;;;;;2.63;100.00;101234.66;6122677;23;20378;-83
2023/12/07 05:35:34;;;;;;;15.35;10.90;;;;;;;2.63;100.00;101234.66;6098299;23;20021;-83
2023/12/07 05:38:03;;;;;;;17.40;11.40;;;;;;;2.65;100.00;101235.56;6122081;23;20026;-83
2023/12/07 05:40:30;;;;;;;17.70;12.27;;;;;;;2.68;100.00;101232.22;6097324;23;20032;-85
2023/12/07 05:43:00;;;;;;;18.15;12.05;;;;;;;2.67;100.00;101237.34;6121707;23;20033;-83
2023/12/07 05:45:27;;;;;;;17.05;11.50;;;;;;;2.70;100.00;101237.44;6121144;23;20057;-84
2023/12/07 05:47:56;;;;;;;18.50;10.63;;;;;;;2.64;100.00;101236.41;6096974;23;20032;-83
2023/12/07 05:50:28;;;;;;;16.75;11.05;;;;;;;2.65;100.00;101238.16;6124960;23;20045;-83
2023/12/07 05:52:55;;;;;;;17.77;10.93;;;;;;;2.65;100.00;101234.72;6100151;23;20163;-85
2023/12/07 05:55:22;;;;;;;15.88;11.90;;;;;;;2.66;100.00;101233.88;6099443;23;20525;-85
2023/12/07 05:57:51;;;;;;;20.15;10.35;;;;;;;2.68;100.00;101234.78;6123390;23;20447;-85
2023/12/07 06:00:18;;;;;;;20.02;11.57;;;;;;;2.72;100.00;101247.00;6097291;23;20294;-84
2023/12/07 06:02:45;;;;;;;20.40;11.52;;;;;;;2.70;100.00;101234.84;6119415;23;20028;-83
2023/12/07 06:05:12;;;;;;;17.15;10.63;;;;;;;2.72;100.00;101244.41;6120236;23;20052;-82
2023/12/07 06:07:39;;;;;;;16.20;11.73;;;;;;;2.71;100.00;101242.69;6120497;23;20104;-85
2023/12/07 06:10:09;;;;;;;17.27;10.50;;;;;;;2.71;100.00;101242.69;6121724;23;20702;-82
2023/12/07 06:12:35;;;;;;;18.65;11.65;;;;;;;2.69;100.00;101246.91;6096022;23;20717;-85
2023/12/07 06:15:02;;;;;;;25.73;11.07;;;;;;;2.70;100.00;101245.19;6095751;23;20040;-83
2023/12/07 06:17:29;;;;;;;15.23;10.20;;;;;;;2.73;100.00;101238.41;6093637;23;20137;-84
2023/12/07 06:19:56;;;;;;;18.95;11.70;;;;;;;2.73;100.00;101251.34;6093540;23;20354;-83
2023/12/07 06:22:22;;;;;;;18.73;11.32;;;;;;;2.69;100.00;101251.22;6116503;23;20435;-82
2023/12/07 06:24:49;;;;;;;21.67;12.25;;;;;;;2.69;100.00;101249.50;6121005;23;20052;-82
2023/12/07 06:27:16;;;;;;;17.02;11.23;;;;;;;2.74;100.00;101254.81;6120962;23;20525;-83
2023/12/07 06:29:43;;;;;;;19.00;12.30;;;;;;;2.74;100.00;101257.41;6121743;23;20021;-83
2023/12/07 06:32:09;;;;;;;18.77;12.00;;;;;;;2.75;100.00;101257.44;6097268;23;20025;-83
2023/12/07 06:34:42;;;;;;;16.20;11.40;;;;;;;2.78;100.00;101264.44;6122746;23;20025;-83
2023/12/07 06:37:12;;;;;;;20.35;12.07;;;;;;;2.79;100.00;101266.16;6093616;23;20033;-82
2023/12/07 06:39:39;;;;;;;27.27;12.00;;;;;;;2.79;100.00;101263.56;6123861;23;20029;-82
2023/12/07 06:42:06;;;;;;;18.33;11.75;;;;;;;2.81;100.00;101269.69;6120688;23;20880;-81
2023/12/07 06:44:32;;;;;;;17.45;10.90;;;;;;;2.78;100.00;101267.00;6097622;23;20025;-81
2023/12/07 06:47:02;;;;;;;18.33;11.95;;;;;;;2.77;100.00;101281.63;6094831;23;20029;-81
2023/12/07 06:49:56;;;;;;;14.90;10.85;;;;;;;2.76;100.00;101273.84;6123015;23;20025;-81
2023/12/07 06:52:23;;;;;;;20.25;12.48;;;;;;;2.80;100.00;101283.44;6095688;23;20428;-83
2023/12/07 06:54:49;;;;;;;22.10;12.10;;;;;;;2.80;100.00;101281.75;6118403;23;20402;-83
2023/12/07 06:57:16;;;;;;;24.70;13.35;;;;;;;2.79;100.00;101284.25;6094445;23;20362;-82
2023/12/07 06:59:42;;;;;;;19.38;11.15;;;;;;;2.77;100.00;101284.22;6096241;23;20096;-83
2023/12/07 07:02:09;;;;;;;21.90;11.77;;;;;;;2.77;100.00;101286.81;6118757;23;20032;-82
2023/12/07 07:04:36;;;;;;;23.85;13.90;;;;;;;2.77;100.00;101291.97;6095252;23;20041;-81
2023/12/07 07:07:03;;;;;;;19.33;13.15;;;;;;;2.80;100.00;101284.34;6094959;23;20116;-81
2023/12/07 07:09:32;;;;;;;18.55;12.15;;;;;;;2.80;100.00;101284.34;6119969;23;20117;-83
2023/12/07 07:11:58;;;;;;;19.27;12.80;;;;;;;2.83;100.00;101283.56;6119457;23;20025;-81
2023/12/07 07:14:25;;;;;;;18.73;12.48;;;;;;;2.84;100.00;101285.28;6122651;23;20026;-82
2023/12/07 07:16:52;;;;;;;17.70;11.20;;;;;;;2.83;100.00;101285.25;6098071;23;20025;-82
2023/12/07 07:19:18;;;;;;;18.45;12.00;;;;;;;2.83;100.00;101286.16;6121307;23;20025;-81
2023/12/07 07:21:45;;;;;;;21.55;11.30;;;;;;;2.84;100.00;101289.59;6097108;23;20021;-82
2023/12/07 07:24:12;;;;;;;20.52;10.05;;;;;;;2.83;100.00;101291.31;6096892;23;20025;-81
2023/12/07 07:26:38;;;;;;;17.45;10.25;;;;;;;2.80;100.00;101292.09;6096058;23;20033;-81
2023/12/07 07:29:06;;;;;;;14.88;10.23;;;;;;;2.84;100.00;101295.63;6122020;23;20021;-82
2023/12/07 07:31:32;;;;;;;16.60;9.80;;;;;;;2.85;100.00;101293.94;6119311;23;20051;-82
2023/12/07 07:33:59;;;;;;;16.67;10.27;;;;;;;2.89;100.00;101299.25;6097131;23;20518;-81
2023/12/07 07:36:25;;;;;;;15.85;9.93;;;;;;;2.89;100.00;101301.84;6095046;23;20406;-82
2023/12/07 07:38:52;;;;;;;16.65;10.68;;;;;;;2.92;100.00;101304.53;6097631;23;20030;-82
2023/12/07 07:41:19;;;;;;;13.68;9.73;;;;;;;2.92;100.00;101301.97;6097640;23;20067;-82
2023/12/07 07:43:45;;;;;;;23.80;11.68;;;;;;;2.94;100.00;101302.88;6121698;23;20734;-82
2023/12/07 07:46:12;;;;;;;15.80;10.23;;;;;;;2.94;100.00;101299.41;6095287;23;20024;-82
2023/12/07 07:48:39;;;;;;;19.70;10.35;;;;;;;2.91;100.00;101299.34;6097820;23;20466;-83
2023/12/07 07:51:06;;;;;;;14.32;9.75;;;;;;;2.90;100.00;101303.59;6096984;23;20464;-82
2023/12/07 07:53:32;;;;;;;17.15;11.25;;;;;;;2.93;100.00;101305.41;6121932;23;20136;-83
2023/12/07 07:55:59;;;;;;;15.70;9.98;;;;;;;2.95;100.00;101304.63;6121304;23;20494;-82
2023/12/07 07:58:25;;;;;;;17.90;11.68;;;;;;;2.94;100.00;101305.47;6097220;23;20324;-81
2023/12/07 08:00:52;;;;;;;16.95;9.77;;;;;;;2.95;100.00;101307.22;6120791;23;20017;-82
2023/12/07 08:03:18;;;;;;;18.35;10.23;;;;;;;2.96;100.00;101313.28;6122690;23;20048;-82
2023/12/07 08:05:45;;;;;;;15.65;10.75;;;;;;;3.03;100.00;101316.97;6096527;23;20045;-83
2023/12/07 08:08:11;;;;;;;16.42;10.85;;;;;;;3.03;100.00;101310.06;6097050;23;20031;-82
2023/12/07 08:10:39;;;;;;;21.90;12.07;;;;;;;3.07;100.00;101319.66;6098927;23;20081;-82
2023/12/07 08:13:07;;;;;;;20.33;12.57;;;;;;;3.05;100.00;101326.53;6096866;23;20506;-81
2023/12/07 08:15:36;;;;;;;20.15;12.65;;;;;;;3.06;100.00;101317.91;6119980;23;20041;-82
2023/12/07 08:18:03;;;;;;;21.58;10.65;;;;;;;3.08;100.00;101315.41;6098086;23;20447;-82
2023/12/07 08:20:29;;;;;;;18.75;10.88;;;;;;;3.05;100.00;101318.75;6121547;23;20013;-82
2023/12/07 08:22:56;;;;;;;15.77;9.73;;;;;;;3.07;100.00;101316.22;6121032;23;20105;-81
2023/12/07 08:25:22;;;;;;;20.83;10.10;;;;;;;3.10;100.00;101321.47;6119186;23;20022;-81
2023/12/07 08:27:49;;;;;;;19.25;11.70;;;;;;;3.07;100.00;101321.41;6120090;23;20033;-81
2023/12/07 08:30:15;;;;;;;19.48;12.02;;;;;;;3.09;100.00;101322.31;6120494;23;20133;-82
2023/12/07 08:32:42;;;;;;;25.83;11.48;;;;;;;3.09;100.00;101325.78;6097034;23;20017;-82
2023/12/07 08:35:08;;;;;;;18.25;11.63;;;;;;;3.10;100.00;101327.56;6096894;23;20026;-82
2023/12/07 08:37:39;;;;;;;18.13;11.23;;;;;;;3.17;100.00;101328.63;6095967;23;20431;-83
2023/12/07 08:40:07;;;;;;;18.92;11.60;;;;;;;3.15;100.00;101325.09;6120981;23;20017;-82
2023/12/07 08:42:33;;;;;;;20.73;11.35;;;;;;;3.14;100.00;101332.00;6119716;23;20040;-81
2023/12/07 08:45:00;;;;;;;18.00;10.77;;;;;;;3.16;100.00;101329.44;6097032;23;20112;-83
2023/12/07 08:47:27;;;;;;;19.50;9.60;;;;;;;3.21;100.00;101330.47;6120946;23;20024;-83
2023/12/07 08:49:54;;;;;;;18.73;11.45;;;;;;;3.23;100.00;101327.94;6096997;23;20057;-81
2023/12/07 08:52:20;;;;;;;15.80;10.38;;;;;;;3.25;100.00;101326.28;6122439;23;20339;-83
2023/12/07 08:54:47;;;;;;;18.75;11.63;;;;;;;3.26;100.00;101320.25;6098559;23;20088;-82
2023/12/07 08:57:13;;;;;;;18.83;11.70;;;;;;;3.29;100.00;101317.78;6121244;23;20829;-81
2023/12/07 08:59:40;;;;;;;19.45;11.10;;;;;;;3.28;100.00;101327.22;6098127;23;20028;-82
2023/12/07 09:02:07;;;;;;;18.10;12.57;;;;;;;3.29;100.00;101328.13;6121156;23;20017;-81
2023/12/07 09:04:34;;;;;;;17.00;11.15;;;;;;;3.29;100.00;101331.59;6097568;23;20093;-81
2023/12/07 09:07:00;;;;;;;15.63;10.32;;;;;;;3.33;100.00;101335.16;6122602;23;20694;-82
2023/12/07 09:09:27;;;;;;;23.05;12.52;;;;;;;3.35;100.00;101333.50;6096785;23;20040;-82
2023/12/07 09:11:53;;;;;;;19.00;11.85;;;;;;;3.36;100.00;101329.19;6096515;23;20564;-81
2023/12/07 09:14:20;;;;;;;19.48;11.73;;;;;;;3.39;100.00;101326.69;6121568;23;20029;-82
2023/12/07 09:16:47;;;;;;;22.35;12.20;;;;;;;3.40;100.00;101334.53;6095567;23;20026;-82
2023/12/07 09:19:14;;;;;;;19.25;12.02;;;;;;;3.38;100.00;101330.16;6097572;23;20036;-83
2023/12/07 09:21:42;;;;;;;19.83;11.95;;;;;;;3.36;100.00;101340.41;6097101;23;20058;-82
2023/12/07 09:24:08;;;;;;;18.45;11.45;;;;;;;3.36;100.00;101347.31;6094558;23;20196;-81
2023/12/07 09:26:36;;;;;;;23.17;11.38;;;;;;;3.34;100.00;101348.97;6094701;23;20025;-82
2023/12/07 09:29:03;;;;;;;18.70;11.73;;;;;;;3.41;100.00;101348.34;6096146;23;20029;-81
2023/12/07 09:31:30;;;;;;;19.40;11.75;;;;;;;3.40;100.00;101351.75;6096075;23;20034;-81
2023/12/07 09:33:57;;;;;;;20.55;12.80;;;;;;;3.41;100.00;101356.09;6095162;23;20025;-80
2023/12/07 09:36:26;;;;;;;23.73;11.70;;;;;;;3.44;100.00;101357.09;6120480;23;20683;-81
2023/12/07 09:38:52;;;;;;;21.73;12.00;;;;;;;3.45;100.00;101356.22;6097383;23;20021;-79
2023/12/07 09:41:20;;;;;;;18.33;11.93;;;;;;;3.51;100.00;101345.22;6095948;23;20479;-80
2023/12/07 09:43:47;;;;;;;20.80;13.15;;;;;;;3.54;100.00;101347.03;6095910;23;20088;-80
2023/12/07 09:46:17;;;;;;;20.08;12.15;;;;;;;3.51;100.00;101344.31;6118771;23;20021;-82
2023/12/07 09:48:45;;;;;;;20.77;12.52;;;;;;;3.55;100.00;101347.06;6096373;23;20084;-83
2023/12/07 09:51:12;;;;;;;18.15;11.20;;;;;;;3.58;100.00;101343.69;6096223;23;20080;-80
2023/12/07 09:53:42;;;;;;;20.00;12.00;;;;;;;3.60;100.00;101339.44;6095794;23;20018;-82
2023/12/07 09:56:09;;;;;;;18.33;10.82;;;;;;;3.63;100.00;101343.00;6121053;23;20711;-79
2023/12/07 09:58:35;;;;;;;22.08;12.32;;;;;;;3.64;100.00;101342.16;6120640;23;20032;-80
2023/12/07 10:01:02;;;;;;;18.90;11.00;;;;;;;3.71;100.00;101343.22;6098204;23;20421;-81
2023/12/07 10:03:30;;;;;;;19.75;12.82;;;;;;;3.68;100.00;101335.38;6098483;23;20509;-80
2023/12/07 10:06:01;;;;;;;18.13;12.70;;;;;;;3.69;100.00;101338.84;6146685;23;20032;-80
2023/12/07 10:08:35;;;;;;;17.05;11.48;;;;;;;3.74;100.00;101334.66;6074309;23;20514;-79
2023/12/07 10:11:13;;;;;;;19.10;12.05;;;;;;;3.82;100.00;101335.81;6097157;23;20033;-80
2023/12/07 10:13:40;;;;;;;21.10;12.45;;;;;;;3.75;100.00;101342.47;6097385;23;20017;-81
2023/12/07 10:16:16;;;;;;;19.13;12.93;;;;;;;3.80;100.00;101340.03;6097643;23;20351;-79
2023/12/07 10:18:43;;;;;;;18.50;11.52;;;;;;;3.69;100.00;101342.31;6122669;23;20025;-81
2023/12/07 10:21:10;;;;;;;19.10;12.00;;;;;;;3.66;100.00;101341.34;6096641;23;20104;-81
2023/12/07 10:23:43;;;;;;;19.85;12.38;;;;;;;3.65;100.00;101343.06;6098107;23;20028;-79
2023/12/07 10:26:11;;;;;;;22.90;11.73;;;;;;;3.63;100.00;101340.41;6095398;23;20025;-79
2023/12/07 10:28:38;;;;;;;17.70;11.13;;;;;;;3.68;100.00;101342.25;6121888;23;20399;-81
2023/12/07 10:31:05;;;;;;;18.60;11.93;;;;;;;3.67;100.00;101345.69;6145430;23;20029;-80
2023/12/07 10:33:31;;;;;;;17.67;12.30;;;;;;;3.69;100.00;101337.13;6096443;23;20022;-79
2023/12/07 10:35:58;;;;;;;18.00;12.07;;;;;;;3.74;100.00;101337.25;6097696;23;20049;-80
2023/12/07 10:38:24;;;;;;;17.15;10.57;;;;;;;3.69;100.00;101333.66;6121644;23;20527;-80
2023/12/07 10:41:06;;;;;;;16.48;12.02;;;;;;;3.78;100.00;101333.94;6120755;23;20024;-82
2023/12/07 10:43:38;;;;;;;20.30;12.50;;;;;;;3.77;100.00;101332.19;6122340;23;20020;-80
2023/12/07 10:46:09;;;;;;;19.02;11.60;;;;;;;3.80;100.00;101316.72;6121480;23;20112;-79
2023/12/07 10:48:37;;;;;;;17.67;10.52;;;;;;;3.81;100.00;101316.78;6122214;23;20035;-80
2023/12/07 10:51:09;;;;;;;18.75;11.82;;;;;;;3.83;100.00;101324.56;6123626;23;20435;-81
2023/12/07 10:53:43;;;;;;;21.15;11.90;;;;;;;3.86;100.00;101310.84;6121534;23;20108;-81
2023/12/07 10:56:26;;;;;;;19.27;12.55;;;;;;;3.83;100.00;101314.22;6096436;23;20021;-81
2023/12/07 10:58:55;;;;;;;19.45;11.45;;;;;;;3.79;100.00;101317.56;6098936;23;20049;-80
2023/12/07 11:01:24;;;;;;;20.70;11.48;;;;;;;3.79;100.00;101307.19;6096253;23;20049;-80
2023/12/07 11:03:52;;;;;;;21.75;12.20;;;;;;;3.82;100.00;101309.91;6122065;23;20022;-79
2023/12/07 11:06:20;;;;;;;22.10;11.27;;;;;;;3.91;100.00;101312.75;6121912;23;20390;-79
2023/12/07 11:09:00;;;;;;;23.60;11.95;;;;;;;3.98;100.00;101312.06;6121948;23;20267;-80
2023/12/07 11:11:30;;;;;;;17.98;11.45;;;;;;;4.03;100.00;101316.50;6095633;23;20116;-81
2023/12/07 11:14:11;;;;;;;16.05;10.25;;;;;;;4.07;100.00;101310.59;6097487;23;20045;-80